Kezdőlap
METAR-TAF:

METAR-TAF

Repülőterek :

Vientián, Laosz

Wattay nemzetközi repülőtér

földrajzi szélesség: 17-57N, földrajzi hosszúság: 102-34E, magasság: 171 m

Jelenlegi meteorológiai megfigyelések

A jelentés 10 órával és 32 perccel ezelõtt készült, 15:00 UTC
Szélcsend
Hőmérséklet 26°C
Páratartalom 84%
Légköri nyomás 1009 hPa
Látótávolság: 4000 m
Párásság

METAR: VLVT 201500Z 00000KT 4000 BR NSC 26/23 Q1009 NOSIG

Idő: 08:32 (01:32 UTC)

Előrejelzés

A jelentés 14 órával és 32 perccel ezelõtt készült, 11:00 UTC
Az előrejelzés 20-én 12 óra UTC és 21-én 12 óra UTC között érvényes
Északi szél 4 kt
Látótávolság: 4000 m
Kevés felhő 2000 lábon
Szakadozott felhőzet 5000 lábon
Párásság
20-én 18 óra UTC és 20-én 23 óra UTC között ideiglenes
Látótávolság: 3000 m
Szórványos felhőzet 5000 lábon
Szórványos felhőzet 10000 lábon
Párásság

TAF: VLVT 201100Z 2012/2112 36004KT 4000 BR FEW020 BKN050 TEMPO 2018/2023 3000 BR SCT050 SCT100

Meteorológiai megfigyelések és előrejelzések több, mint 4000 repülőtéren (METAR és TAF jelentéseket).

A térképen piros és sárga pontok jelzik az elérhető meteorológiai állomásokat.

Mozgassa az egeret a pont fölött, hogy megjelenjen az állomás neve.

Azután kattintson az időjárási megfigyelések és előrejelzések megtekintéséhez.

A térkép megváltoztatása: kattintson a fekete keresztel jelölt zöld gombra ráközelítéshez, a vonallal jelölt zöld gombra távolításhoz, vagy a zöld nyilakra a szomszédos térképek eléréséhez.


METAR-TAF: